Weather observations for the past three days for
Detroit/Grosse Ile, Grosse Ile Airport
Metric (Imperial)
Date Time (edt) Wind (kph) Vis. (km) Weather Sky Cond. Temperature (ºC) Relative Humidity Wind Chill (°C) Heat Index (°C) Pressure Precipitation (cm)
Air Dwpt 6 hour altimeter (cm) sea level (mb) 1 hr 3 hr 6 hr
Max. Min.
10 16:35 Vrbl 9 16.09 Mostly Cloudy BKN085 15 5 51% 76.33 0.0
10 16:15 SW 9 16.09 Partly Cloudy SCT085 14 4 51% 76.35 0.0
10 15:55 S 19 16.09 Partly Cloudy SCT085 14 3 48% 76.35 0.0
10 15:35 S 15 16.09 Mostly Cloudy BKN085 15 5 51% 76.35 0.0
10 15:15 S 19 16.09 Overcast OVC085 14 5 55% 76.35 0.0
10 14:55 S 17 16.09 Overcast OVC085 13 5 59% 76.35 0.0
10 14:35 S 15 16.09 Mostly Cloudy BKN085 15 -1 34% 76.35 0.0
10 14:15 W 13 16.09 Partly Cloudy SCT085 16 -2 29% 76.33 0.0
10 13:55 SW 11 16.09 Fair CLR 16 -2 16.2 8.4 29% 76.33 0.0
10 13:35 NW 26 G 31 16.09 Fair CLR 16 -3 27% 76.33 0.0
10 13:15 NW 24 G 33 16.09 Fair CLR 15 -2 31% 76.33 0.0
10 12:55 N 22 G 30 16.09 Fair CLR 15 -2 31% 76.35 0.0
10 12:35 NW 19 G 28 16.09 Fair CLR 15 -2 31% 76.35 0.0
10 12:15 Vrbl 6 16.09 Fair CLR 15 -2 31% 76.35 0.0
10 11:55 NW 17 16.09 Fair CLR 14 -2 33% 76.33 0.0
10 11:35 Vrbl 6 16.09 Fair CLR 13 -1 38% 76.33 0.0
10 11:15 Vrbl 4 16.09 Fair CLR 12 0 44% 76.33 0.0
10 10:55 Vrbl 6 16.09 Fair CLR 12 0 44% 76.3 0.0
10 10:35 Vrbl 6 16.09 Fair CLR 12 1 47% 76.28 0.0
10 10:15 Vrbl 6 16.09 Fair CLR 11 1 50% 76.28 0.0
10 09:55 Vrbl 4 16.09 Fair CLR 11 0 47% 76.28 0.0
10 09:35 Vrbl 7 16.09 Fair CLR 11 -1 44% 76.28 0.0
10 09:15 N 7 16.09 Fair CLR 11 -1 44% 76.28 0.0
10 08:55 NW 6 16.09 Fair CLR 10 1 54% 76.25 0.0
10 08:35 NW 9 16.09 Fair CLR 10 1 54% 9 76.25 0.0
10 08:15 N 7 16.09 Fair CLR 9 2 62% 8 76.23 0.0
10 07:55 Vrbl 6 16.09 Fair CLR 9 3 11.6 4.8 66% 76.23 0.0
10 07:35 NW 4 16.09 Fair CLR 8 5 82% 76.2 0.0
10 07:15 NW 4 16.09 Fair CLR 7 4 81% 76.15 0.0
10 06:55 NW 4 16.09 Fair CLR 6 4 87% 76.12 0.0
10 06:35 NW 6 16.09 Fair CLR 5 3 87% 76.1 0.0
10 06:15 N 7 16.09 Fair CLR 6 3 81% 5 76.1 0.0
10 05:55 N 9 16.09 Fair CLR 6 3 81% 4 76.07 0.0
10 05:35 NE 13 16.09 Fair CLR 7 3 76% 5 76.07 0.0
10 05:15 NE 13 16.09 Fair CLR 7 3 76% 5 76.05 0.0
10 04:55 NE 15 16.09 Fair CLR 7 3 76% 5 76.02 0.0
10 04:35 NE 13 16.09 Fair CLR 8 4 76% 6 75.97 0.0
10 04:15 NE 13 16.09 A Few Clouds FEW090 9 4 71% 7 75.95 0.0
10 03:55 NE 19 16.09 Mostly Cloudy BKN100 10 2 58% 8 75.9 0.0
10 03:35 N 7 16.09 Mostly Cloudy BKN100 10 2 58% 9 75.84 0.0
10 03:15 N 9 16.09 Partly Cloudy SCT100 11 2 54% 75.82 0.0
10 02:55 N 11 16.09 Overcast OVC100 11 2 54% 75.82 0.0
10 02:35 N 15 16.09 Mostly Cloudy BKN100 11 3 58% 75.79 0.0
10 02:15 NE 13 16.09 Partly Cloudy SCT100 11 4 62% 75.79 0.0
10 01:55 N 11 16.09 Mostly Cloudy BKN100 12 4 19.9 10.2 58% 75.77 0.0
10 01:35 NE 13 16.09 Mostly Cloudy BKN100 12 4 58% 75.77 0.0
10 01:15 NE 13 16.09 Partly Cloudy SCT100 11 4 62% 75.74 0.0
10 00:55 NW 11 16.09 Partly Cloudy SCT110 13 3 51% 75.69 0.0
10 00:35 N 13 16.09 Mostly Cloudy BKN100 14 3 48% 75.67 0.0
10 00:15 N 19 16.09 Mostly Cloudy BKN100 15 2 42% 75.64 0.0
09 23:55 N 17 16.09 Overcast OVC095 15 3 45% 75.64 0.0
09 23:35 N 19 16.09 Mostly Cloudy BKN085 BKN120 16 3 42% 75.62 0.0
09 23:15 N 22 G 31 16.09 Mostly Cloudy BKN085 BKN120 16 4 45% 75.57 0.0
09 22:55 NW 20 16.09 Partly Cloudy FEW075 SCT110 17 5 45% 75.54 0.0
09 22:35 N 22 G 33 16.09 Partly Cloudy FEW070 SCT080 SCT120 16 6 52% 75.51 0.0
09 22:15 NW 6 16.09 Mostly Cloudy FEW070 BKN080 BKN120 15 9 68% 75.44 0.0
09 21:55 W 4 16.09 Partly Cloudy SCT080 SCT120 17 9 60% 75.41 0.0
09 21:35 SW 6 9.66 Mostly Cloudy with Haze BKN090 BKN110 17 8 56% 75.39 0.0
09 21:15 SW 7 16.09 Mostly Cloudy BKN100 BKN120 17 7 52% 75.36 0.0
09 20:55 SW 9 16.09 Mostly Cloudy BKN100 BKN120 18 4 40% 75.34 0.0
09 20:35 W 17 16.09 Mostly Cloudy BKN100 18 3 37% 75.31 0.0
09 20:15 W 19 16.09 Partly Cloudy SCT100 19 2 32% 75.31 0.0
09 19:55 NW 19 G 35 16.09 A Few Clouds FEW100 20 2 21.8 16.2 30% 75.29 0.0
09 19:35 NW 26 G 33 16.09 A Few Clouds FEW100 20 2 30% 75.29 0.0
09 19:15 W 28 G 43 16.09 Partly Cloudy SCT100 20 3 33% 75.26 0.0
09 18:55 W 28 16.09 Mostly Cloudy BKN090 BKN110 21 5 35% 75.26 0.0
09 18:35 W 20 16.09 Partly Cloudy SCT090 20 8 46% 75.23 0.0
09 18:15 W 22 G 30 16.09 Fair CLR 20 10 53% 75.21 0.0
09 17:55 W 15 16.09 Fair CLR 20 10 53% 75.21 0.0
09 17:35 W 17 G 28 16.09 A Few Clouds FEW120 19 10 56% 75.18 0.0
09 17:15 W 13 16.09 Partly Cloudy SCT120 18 10 60% 75.21 0.0
09 16:55 W 17 16.09 Light Rain SCT060 SCT075 BKN090 17 9 60% 75.21 0.0 0.03
09 16:35 W 37 G 65 14.48 Light Rain and Breezy BKN060 BKN080 OVC100 17 9 60% 75.21 0.0
09 16:15 W 33 G 44 16.09 Overcast and Breezy SCT065 SCT080 OVC095 20 10 53% 75.16 0.0
09 15:55 SW 30 G 37 16.09 Mostly Cloudy BKN060 BKN095 BKN120 21 11 53% 75.16 0.0
09 15:35 SW 33 G 43 16.09 Light Rain and Breezy BKN060 BKN070 OVC085 19 11 60% 75.16 0.0
09 15:15 SW 26 G 48 16.09 Mostly Cloudy SCT060 BKN070 BKN090 21 9 46% 75.16 0.0
09 14:55 SW 24 G 37 16.09 Mostly Cloudy SCT060 SCT070 BKN085 21 10 50% 75.16 0.0
09 14:35 SW 28 G 39 16.09 A Few Clouds FEW060 FEW120 19 12 64% 75.18 0.0
09 14:15 S 33 G 43 16.09 Partly Cloudy and Breezy FEW085 SCT120 18 12 68% 75.21 0.0
09 13:55 S 33 G 44 16.09 Mostly Cloudy and Breezy BKN085 BKN110 17 12 17.6 11.6 73% 75.23 0.0
09 13:35 S 31 G 37 16.09 Partly Cloudy FEW075 SCT090 SCT110 17 12 73% 75.23 0.0
09 13:15 S 31 G 41 16.09 Light Rain FEW075 SCT090 SCT120 16 12 77% 75.26 0.0
09 12:55 S 30 16.09 Partly Cloudy FEW100 SCT120 16 12 77% 75.26 0.0
09 12:35 S 26 16.09 Mostly Cloudy FEW080 SCT100 BKN120 15 12 82% 75.29 0.0
09 12:15 S 30 16.09 Partly Cloudy SCT110 15 12 82% 75.29 0.0
09 11:55 S 28 16.09 Fair CLR 15 12 82% 75.29 0.0
09 11:35 S 28 16.09 Partly Cloudy SCT110 15 12 82% 75.31 0.0
09 11:15 S 24 16.09 Mostly Cloudy BKN100 15 12 82% 75.34 0.0
09 10:55 S 26 16.09 A Few Clouds FEW100 15 12 82% 75.34 0.0
09 10:35 S 26 16.09 Partly Cloudy SCT110 15 12 82% 75.36 0.0
09 10:15 S 19 16.09 Mostly Cloudy BKN110 14 12 88% 75.39 0.0
09 09:55 SW 13 16.09 Partly Cloudy SCT120 15 12 82% 75.39 0.0
09 09:35 SW 13 16.09 Partly Cloudy SCT008 14 11 82% 75.39 0.0
09 09:15 SW 15 16.09 Overcast OVC008 13 11 88% 75.39 0.0
09 08:55 SW 11 16.09 Overcast OVC008 12 11 94% 75.41 0.0
09 08:35 SW 15 12.87 Overcast OVC006 12 11 94% 75.41 0.0
09 08:15 SW 13 11.27 Fog/Mist OVC006 12 11 94% 75.41 0.0
09 07:55 W 15 11.27 Fog/Mist OVC006 12 11 11.7 10 94% 75.44 0.0
09 07:35 W 9 8.05 Fog/Mist OVC004 11 11 100% 75.41 0.0
09 07:15 SW 13 6.44 Fog/Mist OVC004 11 11 100% 75.44 0.0
09 06:55 SW 13 8.05 Fog/Mist OVC004 11 11 100% 75.44 0.0
09 06:35 SW 13 4.83 Fog/Mist OVC002 11 11 100% 75.44 0.0
09 06:15 SW 15 3.22 Fog/Mist OVC002 11 11 100% 75.41 0.0
09 05:55 SW 11 4.02 Fog/Mist OVC002 11 11 100% 75.41 0.0
09 05:35 SW 11 4.83 Fog/Mist OVC002 11 11 100% 75.41 0.0
09 05:15 SW 9 11.27 Fog/Mist BKN004 11 11 100% 75.41 0.0
09 04:55 SW 13 16.09 Fair CLR 11 11 100% 75.44 0.0
09 04:35 SW 11 16.09 Fair CLR 11 10 94% 75.44 0.0
09 04:15 SW 13 16.09 Fair CLR 10 10 100% 8 75.46 0.0
09 03:55 S 11 16.09 Fair CLR 10 10 100% 9 75.46 0.0
09 03:35 S 9 16.09 Fair CLR 10 10 100% 9 75.46 0.0
09 03:15 S 9 16.09 Fair CLR 10 10 100% 9 75.49 0.0
09 02:55 SW 7 16.09 Fair CLR 11 10 94% 75.49 0.0
09 02:35 S 9 16.09 Partly Cloudy SCT100 11 10 94% 75.51 0.0
09 02:15 S 9 16.09 Overcast OVC100 11 10 94% 75.51 0.0
09 01:55 S 13 16.09 Overcast OVC100 12 10 13.7 11.7 88% 75.54 0.0
09 01:35 W 9 16.09 Mostly Cloudy FEW085 BKN110 12 10 88% 75.51 0.0
09 01:15 W 9 16.09 Overcast OVC085 12 10 88% 75.54 0.0
09 00:55 W 7 16.09 Overcast OVC085 13 10 82% 75.54 0.0
09 00:35 SW 15 16.09 Overcast OVC085 13 10 82% 75.54 0.0
09 00:15 SW 15 16.09 Overcast OVC085 13 10 82% 75.57 0.0
08 23:55 W 9 16.09 Overcast OVC095 12 10 88% 75.59 0.0
08 23:35 SW 6 16.09 Mostly Cloudy BKN095 12 10 88% 75.59 0.0
08 23:15 SW 9 16.09 Fair CLR 12 10 88% 75.59 0.0
08 22:55 SW 9 16.09 Fair CLR 12 10 88% 75.59 0.0
08 22:35 SW 7 16.09 Fair CLR 12 10 88% 75.59 0.0
08 22:15 SW 11 16.09 Fair CLR 12 10 88% 75.59 0.0
08 21:55 SW 13 16.09 Fair CLR 13 10 82% 75.59 0.0
08 21:35 SW 15 16.09 Fair CLR 13 9 77% 75.59 0.0
08 21:15 SW 15 16.09 Fair CLR 13 10 82% 75.57 0.0
08 20:55 S 20 16.09 Fair CLR 13 10 82% 75.54 0.0
08 20:35 S 26 G 33 16.09 Fair CLR 14 10 77% 75.54 0.0
08 20:15 S 22 16.09 Fair CLR 13 11 88% 75.54 0.0
08 19:55 S 26 16.09 Fair CLR 13 11 14.4 12.7 88% 75.54 0.0
08 19:35 S 31 16.09 Fair CLR 14 10 77% 75.51 0.0
08 19:15 S 22 16.09 A Few Clouds FEW047 FEW060 14 10 77% 75.51 0.0
08 18:55 S 20 16.09 A Few Clouds FEW060 14 10 77% 75.51 0.0
08 18:35 S 19 16.09 Fair CLR 14 10 77% 75.54 0.0
08 18:15 S 19 16.09 Fair CLR 14 11 82% 75.57 0.0
08 17:55 S 15 16.09 Fair CLR 14 11 82% 75.57 0.0
08 17:35 SE 20 16.09 Fair CLR 14 10 77% 75.59 0.0
08 17:15 SE 20 16.09 Fair CLR 13 10 82% 75.59 0.0
08 16:55 SE 20 16.09 A Few Clouds FEW110 14 10 77% 75.62 0.0
08 16:35 SE 19 16.09 A Few Clouds FEW110 14 10 77% 75.62 0.0
08 16:15 S 22 16.09 A Few Clouds FEW070 FEW100 14 9 72% 75.64 0.0
08 15:55 SE 20 16.09 Partly Cloudy FEW070 SCT100 14 9 72% 75.67 0.0
08 15:35 SE 19 16.09 Mostly Cloudy SCT060 SCT070 BKN100 14 9 72% 75.69 0.0
08 15:15 S 19 G 30 16.09 Mostly Cloudy SCT065 BKN100 13 8 72% 75.72 0.0
08 14:55 S 20 16.09 Fair CLR 14 8 67% 75.74 0.0
08 14:35 SE 19 16.09 Fair CLR 13 7 67% 75.74 0.0
08 14:15 S 19 16.09 Fair CLR 14 7 63% 75.77 0.0
08 13:55 S 17 16.09 Fair CLR 13 7 13.7 8 67% 75.77 0.0
08 13:35 S 15 16.09 Fair CLR 13 7 67% 75.82 0.0
08 13:15 S 20 16.09 Fair CLR 13 7 67% 75.82 0.0
08 12:55 S 20 16.09 Fair CLR 13 7 67% 75.87 0.0
08 12:35 S 20 16.09 Fair CLR 13 7 67% 75.87 0.0
08 12:15 S 17 16.09 Fair CLR 13 6 63% 75.9 0.0
08 11:55 S 11 16.09 Fair CLR 13 3 51% 75.9 0.0
08 11:35 E 9 16.09 Fair CLR 13 3 51% 75.87 0.0
08 11:15 Vrbl 7 16.09 Fair CLR 13 5 59% 75.9 0.0
08 10:55 SE 9 16.09 Fair CLR 12 6 67% 75.9 0.0
08 10:35 Vrbl 9 16.09 Fair CLR 11 6 72% 75.92 0.0
08 10:15 SE 7 16.09 Fair CLR 11 6 72% 75.92 0.0
08 09:55 S 7 16.09 Fair CLR 11 6 72% 75.92 0.0
08 09:35 Vrbl 4 16.09 Fair CLR 11 6 72% 75.92 0.0
08 09:15 Vrbl 4 16.09 Fair CLR 10 5 71% 75.92 0.0
08 08:55 NW 4 16.09 Fair CLR 10 6 76% 75.92 0.0
08 08:35 Vrbl 4 16.09 Fair CLR 10 6 76% 75.92 0.0
08 08:15 W 7 16.09 Fair CLR 9 6 82% 8 75.92 0.0
08 07:55 W 7 16.09 Fair CLR 8 6 8.3 5.5 87% 7 75.9 0.0
08 07:35 SW 7 16.09 Partly Cloudy SCT100 7 6 93% 6 75.9 0.0
08 07:15 W 7 16.09 Overcast OVC100 6 5 93% 5 75.87 0.0
08 06:55 W 7 16.09 Overcast OVC100 6 5 93% 5 75.84 0.0
08 06:35 SW 7 16.09 Overcast OVC100 6 5 93% 5 75.84 0.0
08 06:15 SW 6 16.09 Overcast FEW065 OVC100 6 5 93% 75.84 0.0
08 05:55 W 2 16.09 Mostly Cloudy SCT065 BKN110 6 5 93% 75.84 0.0
08 05:35 NW 6 16.09 Partly Cloudy SCT110 7 5 87% 75.84 0.0
08 05:15 NW 6 16.09 Fair CLR 7 5 87% 75.84 0.0
08 04:55 W 7 16.09 Partly Cloudy FEW080 FEW095 SCT110 7 5 87% 6 75.84 0.0
08 04:35 NW 6 16.09 Overcast SCT070 OVC095 8 5 82% 75.84 0.0
08 04:15 W 11 16.09 Overcast SCT070 SCT085 OVC095 8 5 82% 6 75.84 0.0
08 03:55 W 11 16.09 Overcast FEW049 FEW070 OVC080 8 5 82% 6 75.87 0.0
08 03:35 W 7 16.09 Overcast SCT049 OVC090 8 4 76% 7 75.87 0.0
08 03:15 W 9 16.09 Mostly Cloudy FEW049 BKN100 8 4 76% 7 75.87 0.0
08 02:55 W 9 16.09 Partly Cloudy SCT090 8 4 76% 7 75.87 0.0
08 02:35 Vrbl 6 16.09 Overcast OVC090 8 4 76% 75.87 0.0
08 02:15 SW 4 16.09 Overcast OVC090 8 4 76% 75.87 0.0
08 01:55 SW 4 16.09 Mostly Cloudy BKN090 8 4 12.2 8.2 76% 75.9 0.0
08 01:35 W 4 16.09 A Few Clouds FEW090 8 3 71% 75.9 0.0
08 01:15 W 4 16.09 Fair CLR 9 3 66% 75.9 0.0
08 00:55 Vrbl 7 16.09 Fair CLR 9 3 66% 8 75.9 0.0
08 00:35 SW 11 16.09 Fair CLR 9 4 71% 8 75.9 0.0
08 00:15 SW 11 16.09 Fair CLR 9 3 66% 8 75.9 0.0
07 23:55 SW 11 16.09 Partly Cloudy SCT048 10 3 62% 9 75.9 0.0
07 23:35 W 11 16.09 Overcast BKN048 OVC070 10 3 62% 9 75.92 0.0
07 23:15 W 11 16.09 Overcast BKN060 OVC075 11 3 58% 75.92 0.0
07 22:55 W 11 G 26 16.09 Overcast OVC060 11 2 54% 75.92 0.0
07 22:35 SW 9 16.09 Overcast OVC060 11 2 54% 75.92 0.0
07 22:15 W 13 16.09 Mostly Cloudy BKN060 11 1 50% 75.92 0.0
07 21:55 SW 22 G 30 16.09 Overcast OVC070 11 1 50% 75.92 0.0
07 21:35 SW 4 16.09 Overcast BKN070 BKN100 OVC120 10 1 54% 75.87 0.0
07 21:15 SW 4 16.09 Mostly Cloudy BKN110 10 0 50% 75.84 0.0
07 20:55 SW 4 16.09 Partly Cloudy SCT080 11 -1 44% 75.84 0.0
07 20:35 W 4 16.09 Partly Cloudy SCT080 11 -1 44% 75.84 0.0
07 20:15 W 6 16.09 Mostly Cloudy BKN090 11 -1 44% 75.84 0.0
07 19:55 W 9 16.09 Mostly Cloudy BKN090 BKN110 12 -1 14.6 11.9 41% 75.84 0.0
07 19:35 W 15 16.09 A Few Clouds FEW100 12 -1 41% 75.84 0.0
07 19:15 NW 13 16.09 A Few Clouds FEW070 FEW090 13 -1 38% 75.84 0.0
07 18:55 W 19 16.09 A Few Clouds FEW080 FEW090 13 -2 36% 75.84 0.0
07 18:35 W 17 G 31 16.09 Partly Cloudy SCT080 13 -2 36% 75.87 0.0
07 18:15 W 19 G 31 16.09 A Few Clouds FEW090 13 -2 36% 75.87 0.0
07 17:55 W 17 16.09 Partly Cloudy SCT080 14 0 39% 75.87 0.0
07 17:35 NW 19 G 26 16.09 Mostly Cloudy BKN080 BKN090 14 -1 36% 75.84 0.0
07 17:15 NW 24 G 33 16.09 Mostly Cloudy SCT070 BKN090 13 -2 36% 75.87 0.0
07 16:55 NW 28 G 39 16.09 Mostly Cloudy SCT070 BKN085 14 -1 36% 75.87 0.0
Date Time (edt) Wind (kph) Vis. (km) Weather Sky Cond. Air Dwpt Max. Min. Relative Humidity Wind Chill (°C) Heat Index (°C) altimeter (cm) sea level (mb) 1 hr 3 hr 6 hr
6 hour
Temperature (ºC) Pressure Precipitation (cm)